Thursday, March 22, 2018, 11:32 PM GMT
Back to Local

CYKZ, Toronto Buttonville

Location: , , Canada Lat: 43.867
Local Time: 11:32 PM GMT (23:32 GMT) Lon: -79.367
Time Zone: GMT Elev: 649 ft

Show me the last for .
Show Decoded

2018-03-22 23:00 METAR CYKZ 222300Z 32013G21KT 15SM FEW035 FEW100 FEW140 SCT210 M00/M09 A3011 RMK
                 CU1AC1AS1CI3 CU TR AC TR SLP208 =
2018-03-22 22:00 METAR CYKZ 222200Z 32013G19KT 15SM FEW035 FEW110 FEW180 BKN230 01/M09 A3010 RMK
                 CU1AC1AS1CS6 CU TR AC TR SUN DOG SLP203 =
2018-03-22 21:00 METAR CYKZ 222100Z 34013G18KT 15SM FEW040 FEW120 FEW150 FEW180 BKN210 02/M08
                 A3009 RMK CU1AC1AC1AS1CS7 CU TR AC TR AC TR AS TR SLP200 =
2018-03-22 20:00 METAR CYKZ 222000Z 32014G20KT 15SM FEW120 FEW160 BKN230 02/M08 A3008 RMK
                 AC1AS1CS6 AC TR HALO SLP197 =
2018-03-22 19:00 METAR CYKZ 221900Z 33010G18KT 260V350 15SM BKN200 03/M07 A3008 RMK CS7 HALO
                 SLP196 =
2018-03-22 18:00 METAR CYKZ 221800Z 35011G17KT 15SM FEW160 FEW200 FEW240 BKN260 03/M09 A3009 RMK
                 AC1CS1CS1CS5 AC TR HALO SLP200 =
2018-03-22 17:00 METAR CYKZ 221700Z 33013KT 15SM FEW160 BKN220 01/M10 A3010 RMK AC1CS7 AC TR HALO
                 SLP202 =
2018-03-22 16:00 METAR CYKZ 221600Z 32015G21KT 15SM FEW170 FEW200 BKN230 BKN260 01/M10 A3010 RMK
                 AC1CI1CS4CS2 AC TR HALO SLP202 =
2018-03-22 15:00 METAR CYKZ 221500Z 33012G18KT 15SM FEW180 FEW200 BKN260 M00/M10 A3009 RMK
                 AC1CI2CS4 AC TR SLP200 =
2018-03-22 14:00 METAR CYKZ 221400Z 34012KT 15SM FEW170 SCT200 BKN230 M02/M11 A3009 RMK AC2CI1CS2
                 HALO SLP201 =
2018-03-22 13:00 METAR CYKZ 221300Z 33011KT 15SM FEW180 SCT220 BKN260 M04/M11 A3008 RMK AC1CI2CS3
                 HALO SLP198 =
2018-03-22 12:00 METAR CYKZ 221200Z 32008KT 15SM FEW170 FEW220 FEW230 BKN270 M04/M11 A3007 RMK
                 AC1CC1CI1CS4 CC TR SLP194 =
2018-03-22 11:00 METAR CYKZ 221100Z 33008KT 15SM FEW190 BKN260 M05/M11 A3006 RMK AS1CI7 AS TR
                 SLP189 =
2018-03-22 10:00 METAR CYKZ 221000Z 32008KT 15SM FEW190 FEW260 M04/M11 A3005 RMK AS1CI1 AS TR CI
                 TR SLP187 =
2018-03-22 09:00 METAR CYKZ 220900Z 34009KT 15SM FEW260 M04/M11 A3005 RMK CI1 CI TR SLP184 =
2018-03-22 08:00 METAR CYKZ 220800Z 33008KT 15SM SKC M03/M11 A3004 RMK SLP182 =
2018-03-22 07:00 METAR CYKZ 220700Z 34009KT 15SM SKC M03/M11 A3004 RMK SLP181 =
2018-03-22 06:00 METAR CYKZ 220600Z 35010KT 15SM SCT170 M02/M11 A3003 RMK AS3 SLP179 =
2018-03-22 05:00 METAR CYKZ 220500Z 35010KT 15SM SCT170 M02/M11 A3003 RMK AS3 SLP177 =
2018-03-22 04:00 METAR CYKZ 220400Z 34011KT 15SM SKC M02/M10 A3002 RMK SLP175 =
2018-03-22 03:00 METAR CYKZ 220300Z 33009KT 15SM SKC M01/M09 A3001 RMK SLP173 =
2018-03-22 02:00 METAR CYKZ 220200Z 32009KT 15SM SKC M01/M09 A3000 RMK SLP169 =
2018-03-22 01:00 METAR CYKZ 220100Z 33011KT 15SM FEW180 M00/M09 A2999 RMK AS1 AS TR SLP166 =
2018-03-22 00:00 METAR CYKZ 220000Z 33009KT 15SM OVC180 00/M09 A2997 RMK AS8 SLP159 =

Support USWX by starting your Amazon purchase here.